Latest Coastal Weather Observations for Dennes Point

IDT60701

Issued at 6:22 pm EST Sunday 28 May 2017 (issued every 10 minutes, with the page automatically refreshed every 10 minutes)

About coastal observations | Map of coastal stations | Coastal observations for TAS | Marine services | Other Formats
Station Details ID: 094255 Name: DENNES POINT Lat: -43.06 Lon: 147.36 Height: 5.67 m
Data from the previous 72 hours. | See also: Recent months at Dennes Point
Date/Time
EST
Temp
°C
Wind Pressure Rain since
9am
mm
Weather Cloud Vis
km
Sea
Height
m
Swell
Dir  Spd
kts
Gust
kts
hPa Trend Height
m
Period
s
Dir
28/06:00pm 9.7 W 10 11 1002.7 - 0.8 - - - - - - -
28/05:30pm 10.2 WSW 8 11 1002.3 - 0.8 - - - - - - -
28/05:00pm 9.4 SW 5 8 1001.9 - 0.8 - - - - - - -
28/04:30pm 9.9 SSW 6 10 1001.6 - 0.8 - - - - - - -
28/04:00pm 10.1 SSW 6 9 1001.1 - 0.8 - - - - - - -
28/03:30pm 11.1 S 9 13 1000.7 - 0.0 - - - - - - -
28/03:00pm 12.6 SW 6 9 1000.3 - 0.0 - - - - - - -
28/02:30pm 12.5 SW 3 4 1000.0 - 0.0 - - - - - - -
28/02:00pm 12.6 WSW 4 6 999.8 - 0.0 - - - - - - -
28/01:30pm 12.3 WSW 4 6 999.7 - 0.0 - - - - - - -
28/01:00pm 12.2 WSW 5 5 999.5 - 0.0 - - - - - - -
28/12:30pm 12.1 W 7 9 999.6 - 0.0 - - - - - - -
28/12:00pm 11.9 W 1 4 999.9 - 0.0 - - - - - - -
28/11:30am 11.7 W 3 4 999.9 - 0.0 - - - - - - -
28/11:00am 11.5 W 4 4 1000.3 - 0.0 - - - - - - -
28/10:30am 11.1 W 7 8 1000.2 - 0.0 - - - - - - -
28/10:00am 10.9 WSW 3 5 1000.1 - 0.0 - - - - - - -
28/09:30am 11.4 CALM 0 0 1000.2 - 0.0 - - - - - - -
28/09:00am 11.3 NW 3 4 1000.3 - 2.4 - - - - - - -
28/08:30am 10.9 NNE 2 4 999.8 - 2.4 - - - - - - -
28/08:00am 10.8 CALM 0 0 1000.1 - 2.4 - - - - - - -
28/07:30am 10.2 SW 3 4 1000.0 - 2.2 - - - - - - -
28/07:00am 10.5 SW 5 6 999.9 - 2.2 - - - - - - -
28/06:30am 12.0 WNW 8 11 999.7 - 1.8 - - - - - - -
28/06:00am 10.9 SW 1 3 999.5 - 1.8 - - - - - - -
28/05:30am 10.9 S 3 4 999.4 - 1.8 - - - - - - -
28/05:00am 11.1 WSW 4 7 999.6 - 1.8 - - - - - - -
28/04:30am 11.8 NNW 8 11 999.5 - 1.8 - - - - - - -
28/04:00am 11.9 NNW 10 15 999.7 - 1.8 - - - - - - -
28/03:30am 11.8 N 9 11 1000.2 - 1.8 - - - - - - -
28/03:00am 12.2 N 14 18 1000.3 - 1.8 - - - - - - -
28/02:30am 12.5 N 14 19 1000.5 - 1.8 - - - - - - -
28/02:00am 12.4 NNW 7 11 1001.2 - 1.8 - - - - - - -
28/01:30am 11.7 SSE 1 4 1001.8 - 1.4 - - - - - - -
28/01:00am 12.0 SW 8 12 1002.3 - 1.2 - - - - - - -
28/12:30am 12.7 NNW 8 10 1002.2 - 1.2 - - - - - - -
28/12:00am 13.1 NNW 6 8 1003.2 - 1.2 Rain - - - - - -
 
Date/Time
EST
Temp
°C
Wind Pressure Rain since
9am
mm
Weather Cloud Vis
km
Sea
Height
m
Swell
Dir  Spd
kts
Gust
kts
hPa Trend Height
m
Period
s
Dir
27/11:30pm 13.6 NNW 7 10 1003.3 - 0.4 - - - - - - -
27/11:00pm 14.4 N 11 13 1003.1 - 0.0 - - - - - - -
27/10:30pm 14.5 N 13 16 1003.3 - 0.0 - - - - - - -
27/10:00pm 14.0 N 14 17 1003.5 - 0.0 - - - - - - -
27/09:30pm 14.1 NNE 12 15 1003.6 - 0.0 - - - - - - -
27/09:00pm 14.2 N 12 15 1003.7 - 0.0 - - - - - - -
27/08:30pm 14.4 N 13 15 1004.1 - 0.0 - - - - - - -
27/08:00pm 14.4 N 11 13 1004.4 - 0.0 - - - - - - -
27/07:30pm 14.1 NNW 7 11 1004.5 - 0.0 - - - - - - -
27/07:00pm 14.4 N 9 11 1004.9 - 0.0 - - - - - - -
27/06:30pm 14.9 N 9 13 1004.7 - 0.0 - - - - - - -
27/06:00pm 16.3 NW 14 20 1004.7 - 0.0 - - - - - - -
27/05:30pm 15.8 NNW 13 17 1004.9 - 0.0 - - - - - - -
27/05:00pm 15.8 NNW 8 14 1005.0 - 0.0 - - - - - - -
27/04:30pm 14.6 N 4 7 1005.2 - 0.0 - - - - - - -
27/04:00pm 14.8 N 2 5 1005.4 - 0.0 - - - - - - -
27/03:30pm 14.8 NNW 2 4 1005.6 - 0.0 - - - - - - -
27/03:00pm 15.5 ENE 3 6 1005.9 - 0.0 - - - - - - -
27/02:30pm 15.3 NE 6 16 1006.4 - 0.0 - - - - - - -
27/02:00pm 15.2 ESE 6 13 1006.9 - 0.0 - - - - - - -
27/01:30pm 14.5 ENE 6 12 1007.4 - 0.0 - - - - - - -
27/01:00pm 13.3 ENE 8 12 1007.9 - 0.0 - - - - - - -
27/12:30pm 13.7 NE 10 15 1008.6 - 0.0 - - - - - - -
27/12:00pm 12.2 NE 13 18 1009.0 - 0.0 - - - - - - -
27/11:30am 12.5 NNE 13 16 1009.5 - 0.0 - - - - - - -
27/11:00am 11.8 NNE 14 17 1010.1 - 0.0 - - - - - - -
27/10:30am 11.5 NNE 16 20 1010.4 - 0.0 - - - - - - -
27/10:00am 10.6 NNE 15 19 1010.8 - 0.0 - - - - - - -
27/09:30am 10.8 NNE 12 16 1011.4 - 0.0 - - - - - - -
27/09:00am 10.6 NNE 14 18 1011.8 - 0.0 - - - - - - -
27/08:30am 10.2 NNE 10 13 1012.3 - 0.0 - - - - - - -
27/08:00am 9.4 NNE 11 13 1012.6 - 0.0 - - - - - - -
27/07:30am 9.4 N 10 12 1012.7 - 0.0 - - - - - - -
27/07:00am 9.4 NNE 11 13 1012.8 - 0.0 - - - - - - -
27/06:30am 9.8 NNE 10 12 1013.0 - 0.0 - - - - - - -
27/06:00am 10.0 NNE 9 13 1013.3 - 0.0 - - - - - - -
27/05:30am 9.3 NNE 9 12 1013.7 - 0.0 - - - - - - -
27/05:00am 9.1 NNE 7 10 1013.9 - 0.0 - - - - - - -
27/04:30am 8.6 NNW 3 4 1014.1 - 0.0 - - - - - - -
27/04:00am 8.9 NNW 6 8 1014.1 - 0.0 - - - - - - -
27/03:30am 9.2 N 9 12 1014.1 - 0.0 - - - - - - -
27/03:00am 9.3 NNW 7 11 1014.4 - 0.0 - - - - - - -
27/02:30am 9.0 N 6 9 1014.8 - 0.0 - - - - - - -
27/02:00am 9.0 NNE 6 10 1014.9 - 0.0 - - - - - - -
27/01:30am 7.1 WSW 5 10 1015.1 - 0.0 - - - - - - -
27/01:00am 7.8 ESE 1 3 1015.5 - 0.0 - - - - - - -
27/12:30am 6.5 SSW 6 8 1016.2 - 0.0 - - - - - - -
27/12:00am 6.9 SSW 5 7 1016.3 - 0.0 - - - - - - -
 
Date/Time
EST
Temp
°C
Wind Pressure Rain since
9am
mm
Weather Cloud Vis
km
Sea
Height
m
Swell
Dir  Spd
kts
Gust
kts
hPa Trend Height
m
Period
s
Dir
26/11:30pm 6.8 SSW 6 7 1016.7 - 0.0 - - - - - - -
26/11:00pm 7.6 SSW 3 5 1016.8 - 0.0 - - - - - - -
26/10:30pm 6.8 SW 5 6 1017.0 - 0.0 - - - - - - -
26/10:00pm 7.0 SSW 5 5 1017.1 - 0.0 - - - - - - -
26/09:30pm 8.3 SW 2 5 1017.3 - 0.0 - - - - - - -
26/09:00pm 9.3 CALM 0 0 1017.4 - 0.0 - - - - - - -
26/08:30pm 8.8 W 1 3 1017.6 - 0.0 - - - - - - -
26/08:00pm 8.6 SSW 4 5 1017.8 - 0.0 - - - - - - -
26/07:30pm 9.4 SSW 5 6 1017.8 - 0.0 - - - - - - -
26/07:00pm 8.9 SW 4 5 1017.8 - 0.0 - - - - - - -
26/06:30pm 10.0 S 3 5 1017.6 - 0.0 - - - - - - -
26/06:00pm 10.3 W 6 7 1017.5 - 0.0 - - - - - - -
26/05:30pm 10.9 W 7 10 1017.1 - 0.0 - - - - - - -
26/05:00pm 10.9 WSW 5 7 1016.9 - 0.0 - - - - - - -
26/04:30pm 13.1 WNW 6 9 1016.9 - 0.0 - - - - - - -
26/04:00pm 13.1 W 10 13 1016.7 - 0.0 - - - - - - -
26/03:30pm 13.8 N 5 6 1016.7 - 0.0 - - - - - - -
26/03:00pm 13.5 WNW 5 9 1016.7 - 0.0 - - - - - - -
26/02:30pm 14.5 WSW 4 6 1016.7 - 0.0 - - - - - - -
26/02:00pm 14.4 W 5 9 1016.9 - 0.0 - - - - - - -
26/01:30pm 14.3 W 11 17 1017.0 - 0.0 - - - - - - -
26/01:00pm 13.6 WSW 7 10 1017.2 - 0.0 - - - - - - -
26/12:30pm 14.1 W 8 13 1017.3 - 0.0 - - - - - - -
26/12:00pm 14.4 W 9 12 1017.5 - 0.0 - - - - - - -
26/11:30am 13.9 W 9 13 1017.6 - 0.0 - - - - - - -
26/11:00am 13.6 WNW 9 13 1017.9 - 0.0 - - - - - - -
26/10:30am 13.0 WNW 6 8 1018.1 - 0.0 - - - - - - -
26/10:00am 12.6 W 6 9 1017.9 - 0.0 - - - - - - -
26/09:30am 11.9 WNW 7 9 1017.8 - 0.0 - - - - - - -
26/09:00am 11.5 W 7 11 1017.7 - 0.2 - - - - - - -
26/08:30am 10.3 CALM 0 0 1017.3 - 0.2 - - - - - - -
26/08:00am 9.5 CALM 0 0 1017.0 - 0.2 - - - - - - -
26/07:30am 9.5 WNW 4 6 1016.7 - 0.2 - - - - - - -
26/07:00am 8.4 WSW 4 7 1016.3 - 0.2 - - - - - - -
26/06:30am 9.5 W 7 8 1016.0 - 0.2 - - - - - - -
26/06:00am 9.7 W 8 10 1015.4 - 0.2 - - - - - - -
26/05:30am 10.4 W 8 11 1015.3 - 0.2 - - - - - - -
26/05:00am 10.9 WNW 9 13 1014.7 - 0.2 - - - - - - -
26/04:30am 10.9 WNW 9 15 1014.2 - 0.2 - - - - - - -
26/04:00am 10.5 W 9 13 1014.1 - 0.2 - - - - - - -
26/03:30am 11.5 WNW 10 14 1013.8 - 0.2 - - - - - - -
26/03:00am 11.5 WNW 7 13 1013.4 - 0.2 - - - - - - -
26/02:30am 11.3 WNW 10 15 1013.4 - 0.2 - - - - - - -
26/02:00am 11.1 W 13 20 1013.2 - 0.2 - - - - - - -
26/01:30am 11.2 WNW 8 13 1012.9 - 0.2 - - - - - - -
26/01:00am 10.1 W 5 7 1012.7 - 0.2 - - - - - - -
26/12:30am 10.8 WSW 13 17 1012.7 - 0.2 - - - - - - -
26/12:00am 12.4 WNW 8 11 1012.3 - 0.0 - - - - - - -
 
Date/Time
EST
Temp
°C
Wind Pressure Rain since
9am
mm
Weather Cloud Vis
km
Sea
Height
m
Swell
Dir  Spd
kts
Gust
kts
hPa Trend Height
m
Period
s
Dir
25/11:30pm 11.9 WNW 11 14 1011.9 - 0.0 - - - - - - -
25/11:00pm 12.3 W 16 20 1011.8 - 0.0 - - - - - - -
25/10:30pm 12.1 W 9 13 1011.7 - 0.0 - - - - - - -
25/10:00pm 12.2 WSW 10 11 1011.5 - 0.0 - - - - - - -
25/09:30pm 12.4 WSW 11 17 1011.4 - 0.0 - - - - - - -
25/09:00pm 12.6 W 13 16 1011.1 - 0.0 - - - - - - -
25/08:30pm 11.7 WSW 9 17 1010.8 - 0.0 - - - - - - -
25/08:00pm 11.3 SW 1 2 1010.6 - 0.0 - - - - - - -
25/07:30pm 11.7 SSE 3 3 1010.4 - 0.0 - - - - - - -
25/07:00pm 12.4 S 3 5 1010.1 - 0.0 - - - - - - -
25/06:30pm 14.1 W 10 15 1009.7 - 0.0 - - - - - - -

Other Formats:

Comma delimited format used in spreadsheet applications
http://www.bom.gov.au/fwo/IDT60701/IDT60701.94988.axf

JavaScript Object Notation format (JSON) in row-major order
http://www.bom.gov.au/fwo/IDT60701/IDT60701.94988.json